TimeEST,TemperatureF,Dew PointF,Humidity,Sea Level PressureIn,VisibilityMPH,Wind Direction,Wind SpeedMPH,Gust SpeedMPH,PrecipitationIn,Events,Conditions,WindDirDegrees,DateUTC
12:23 AM,35.6,33.8,93,30.01,10.0,West,3.5,-,N/A,,Light Drizzle,260,2013-03-02 05:23:00
12:53 AM,35.1,32.0,89,30.02,8.0,West,4.6,-,0.00,,Light Drizzle,260,2013-03-02 05:53:00
1:16 AM,35.6,33.8,93,30.01,10.0,WSW,4.6,-,0.00,,Light Drizzle,240,2013-03-02 06:16:00
1:38 AM,35.6,32.0,87,30.01,10.0,WSW,3.5,-,0.00,,Light Drizzle,240,2013-03-02 06:38:00
1:53 AM,35.6,32.0,87,30.01,10.0,WSW,4.6,-,N/A,,Light Drizzle,250,2013-03-02 06:53:00
2:00 AM,35.6,32.0,87,30.00,10.0,WSW,4.6,-,0.00,,Light Drizzle,250,2013-03-02 07:00:00
2:29 AM,35.6,32.0,87,30.00,10.0,West,4.6,-,0.00,,Light Drizzle,260,2013-03-02 07:29:00
2:40 AM,35.6,30.2,81,29.99,10.0,WSW,4.6,-,0.00,,Light Drizzle,250,2013-03-02 07:40:00
2:53 AM,35.1,30.9,85,30.00,10.0,WSW,3.5,-,0.00,,Light Drizzle,250,2013-03-02 07:53:00
3:53 AM,35.1,32.0,89,29.99,10.0,WSW,3.5,-,0.00,,Light Drizzle,250,2013-03-02 08:53:00
4:18 AM,35.6,32.0,87,29.98,10.0,West,4.6,-,0.00,,Light Drizzle,260,2013-03-02 09:18:00
4:53 AM,35.1,32.0,89,29.99,9.0,West,3.5,-,0.00,,Light Drizzle,270,2013-03-02 09:53:00
5:53 AM,35.1,32.0,89,30.00,7.0,NW,4.6,-,0.00,,Overcast,320,2013-03-02 10:53:00
6:53 AM,35.1,28.9,78,30.01,7.0,NW,5.8,-,N/A,,Overcast,320,2013-03-02 11:53:00
7:53 AM,36.0,28.0,73,30.02,10.0,WNW,8.1,-,N/A,,Overcast,300,2013-03-02 12:53:00
8:53 AM,36.0,27.0,70,30.03,10.0,NNW,11.5,-,N/A,,Overcast,330,2013-03-02 13:53:00
9:53 AM,36.0,27.0,70,30.04,10.0,WNW,6.9,-,N/A,,Mostly Cloudy,300,2013-03-02 14:53:00
10:53 AM,37.0,26.1,65,30.04,10.0,NW,12.7,-,N/A,,Mostly Cloudy,310,2013-03-02 15:53:00
11:53 AM,37.0,26.1,65,30.05,10.0,West,9.2,-,N/A,,Mostly Cloudy,280,2013-03-02 16:53:00
12:53 PM,37.0,26.1,65,30.04,10.0,WNW,9.2,-,N/A,,Overcast,300,2013-03-02 17:53:00
1:53 PM,39.0,26.1,60,30.02,10.0,WNW,11.5,-,N/A,,Overcast,300,2013-03-02 18:53:00
2:53 PM,39.0,28.0,65,30.02,10.0,WNW,9.2,18.4,N/A,,Overcast,290,2013-03-02 19:53:00
3:53 PM,37.9,27.0,65,30.03,10.0,NW,10.4,-,N/A,,Overcast,320,2013-03-02 20:53:00
4:53 PM,37.0,28.0,70,30.04,9.0,NNW,12.7,20.7,0.00,Snow,Light Snow,330,2013-03-02 21:53:00
5:53 PM,37.0,27.0,67,30.06,10.0,NNW,12.7,-,0.00,Snow,Light Snow,340,2013-03-02 22:53:00
6:53 PM,36.0,27.0,70,30.07,10.0,NNW,9.2,-,0.00,,Overcast,340,2013-03-02 23:53:00
7:53 PM,35.1,27.0,72,30.09,9.0,NNW,9.2,-,0.00,Snow,Light Snow,340,2013-03-03 00:53:00
8:53 PM,35.1,26.1,70,30.09,9.0,NNW,11.5,-,0.00,Snow,Light Snow,340,2013-03-03 01:53:00
9:53 PM,35.1,24.1,64,30.10,9.0,North,13.8,-,0.00,Snow,Light Snow,350,2013-03-03 02:53:00
10:53 PM,34.0,25.0,70,30.10,9.0,NNW,10.4,-,0.00,Snow,Light Snow,330,2013-03-03 03:53:00
11:53 PM,33.1,23.0,66,30.10,9.0,NNW,11.5,-,0.00,Snow,Light Snow,340,2013-03-03 04:53:00